createdAt,value
2017-07-12T09:33:10.922Z,973.4
2017-07-12T09:34:13.385Z,973
2017-07-12T09:35:15.879Z,973.3
2017-07-12T09:36:18.464Z,973.3
2017-07-12T09:37:20.919Z,973.3
2017-07-12T09:38:23.396Z,973.3
2017-07-12T09:39:25.894Z,973.2
2017-07-12T09:40:28.545Z,973.3
2017-07-12T09:41:31.088Z,973.3
2017-07-12T09:42:33.665Z,973.3
2017-07-12T09:43:36.174Z,973.3
2017-07-12T09:44:38.670Z,973.2
2017-07-12T09:45:41.170Z,973.1
2017-07-12T09:46:43.661Z,973.2
2017-07-12T09:47:46.164Z,973.2
2017-07-12T09:48:48.671Z,973.2
2017-07-12T09:49:51.165Z,973.2
2017-07-12T09:50:53.729Z,973.3
2017-07-12T09:51:56.183Z,973.2
2017-07-12T09:52:58.665Z,973.2
2017-07-12T09:54:01.100Z,973.1
2017-07-12T09:55:03.652Z,973.1
2017-07-12T09:56:06.103Z,972.9
2017-07-12T09:57:08.638Z,973.2
2017-07-12T09:58:11.634Z,973.1
2017-07-12T09:59:14.471Z,973.2
2017-07-12T10:00:16.997Z,973.2
2017-07-12T10:01:19.606Z,973.2
2017-07-12T10:02:22.100Z,973.2
2017-07-12T10:03:24.571Z,973.2
2017-07-12T10:04:27.082Z,973.2
2017-07-12T10:05:29.649Z,973.1
2017-07-12T10:06:32.150Z,973.1
2017-07-12T10:07:34.682Z,973.1
2017-07-12T10:08:37.177Z,973.1
2017-07-12T10:09:39.680Z,973.2
2017-07-12T10:10:42.141Z,973.1
2017-07-12T10:11:44.694Z,972.9
2017-07-12T10:12:47.203Z,973.1
2017-07-12T10:13:49.804Z,973.1
2017-07-12T10:14:52.324Z,973.1
2017-07-12T10:15:54.773Z,972.8
2017-07-12T10:16:57.254Z,972.9
2017-07-12T10:17:59.789Z,973.2
2017-07-12T10:19:02.249Z,973.1
2017-07-12T10:20:04.685Z,973.1
2017-07-12T10:21:07.171Z,973
2017-07-12T10:22:09.876Z,973
2017-07-12T10:23:12.350Z,973
2017-07-12T10:24:14.845Z,973
2017-07-12T10:25:17.375Z,972.4
2017-07-12T10:26:19.824Z,972.9
2017-07-12T10:27:22.376Z,972.9
2017-07-12T10:28:24.896Z,972.8
2017-07-12T10:29:30.023Z,972.6
2017-07-12T10:30:32.482Z,972.9
2017-07-12T10:31:34.959Z,972.9
2017-07-12T10:32:37.483Z,972.9
2017-07-12T10:33:39.969Z,972.9
2017-07-12T10:34:42.489Z,972.9
2017-07-12T10:35:44.947Z,972.9
2017-07-12T10:36:47.406Z,972.8
2017-07-12T10:37:50.189Z,972.8
2017-07-12T10:38:52.774Z,972.8
2017-07-12T10:39:56.186Z,972.7
2017-07-12T10:40:58.975Z,972.8
2017-07-12T10:42:01.522Z,972.8
2017-07-12T10:43:04.044Z,972.8
2017-07-12T10:44:06.579Z,972.8
2017-07-12T10:45:09.122Z,972.8
2017-07-12T10:46:11.643Z,972.9
2017-07-12T10:47:14.184Z,972.9
2017-07-12T10:48:16.708Z,972.9
2017-07-12T10:49:19.216Z,972.6
2017-07-12T10:51:24.627Z,972.6
2017-07-12T10:52:27.167Z,972.9
2017-07-12T10:53:29.727Z,972.8
2017-07-12T10:54:32.199Z,972.9
2017-07-12T10:55:34.699Z,972.9
2017-07-12T10:56:37.199Z,973
2017-07-12T10:57:39.820Z,972.9
2017-07-12T10:58:42.328Z,972.8
2017-07-12T10:59:44.845Z,973
2017-07-12T11:00:47.369Z,973
2017-07-12T11:01:49.902Z,973
2017-07-12T11:02:52.382Z,973
2017-07-12T11:03:54.887Z,973
2017-07-12T11:04:57.562Z,972.9
2017-07-12T11:06:00.067Z,973
2017-07-12T11:07:02.523Z,973
2017-07-12T11:08:04.990Z,973
2017-07-12T11:09:07.470Z,972.6
2017-07-12T11:10:10.033Z,973
2017-07-12T11:11:12.572Z,972.9
2017-07-12T11:12:15.051Z,972.9
2017-07-12T11:13:17.563Z,972.9
2017-07-12T11:14:20.045Z,972.7
2017-07-12T11:15:22.627Z,972.8
2017-07-12T11:16:25.199Z,973
2017-07-12T11:17:27.714Z,972.8
2017-07-12T11:18:30.198Z,972.9
2017-07-12T11:19:32.733Z,972.8
2017-07-12T11:20:35.298Z,972.8
2017-07-12T11:21:37.801Z,972.6
2017-07-12T11:22:40.574Z,972.7
2017-07-12T11:23:43.059Z,972.6
2017-07-12T11:24:45.619Z,972.7
2017-07-12T11:25:48.310Z,972.5
2017-07-12T11:26:50.867Z,972.2
2017-07-12T11:27:53.389Z,972.5
2017-07-12T11:28:55.888Z,972.5
2017-07-12T11:29:58.419Z,972.5
2017-07-12T11:31:00.915Z,972.6
2017-07-12T11:32:03.438Z,972.6
2017-07-12T11:33:05.901Z,972.6
2017-07-12T11:34:08.455Z,972.6
2017-07-12T11:35:10.949Z,972.6
2017-07-12T11:36:13.435Z,972.6
2017-07-12T11:37:15.971Z,972.6
2017-07-12T11:38:18.480Z,972.6
2017-07-12T11:39:20.992Z,972.7
2017-07-12T11:40:23.487Z,972.7
2017-07-12T11:41:25.980Z,972.7
2017-07-12T11:42:28.551Z,972.7
2017-07-12T11:43:31.057Z,972.7
2017-07-12T11:44:33.551Z,972.4
2017-07-12T11:45:36.086Z,972.6
2017-07-12T11:46:38.788Z,972.7
2017-07-12T11:47:41.716Z,972.7
2017-07-12T11:48:44.291Z,972.7
2017-07-12T11:49:46.905Z,972.6
2017-07-12T11:50:49.481Z,972.6
2017-07-12T11:51:52.135Z,972.5
2017-07-12T11:52:54.726Z,972.6
2017-07-12T11:53:57.394Z,972.5
2017-07-12T11:54:59.974Z,972.5
2017-07-12T11:56:02.557Z,972.5
2017-07-12T11:57:05.104Z,972.4
2017-07-12T11:58:07.877Z,972.4
2017-07-12T11:59:10.404Z,972.4
2017-07-12T12:00:12.865Z,972.4
2017-07-12T12:01:15.414Z,972.3
2017-07-12T12:02:17.935Z,971.9
2017-07-12T12:03:20.509Z,972.3
2017-07-12T12:04:23.129Z,972.2
2017-07-12T12:05:25.676Z,972.3
2017-07-12T12:06:28.284Z,972.2
2017-07-12T12:07:30.857Z,972.2
2017-07-12T12:08:33.402Z,972.2
2017-07-12T12:09:35.899Z,972.3
